sensor_id;sensor_type;location;lat;lon;timestamp;pressure;altitude;pressure_sealevel;temperature;humidity
43824;BME280;29470;53.550;9.926;2023-03-23T00:01:23;99877.38;;;15.31;74.58
43824;BME280;29470;53.550;9.926;2023-03-23T00:06:27;99875.56;;;15.06;76.52
43824;BME280;29470;53.550;9.926;2023-03-23T00:11:34;99873.88;;;15.81;74.78
43824;BME280;29470;53.550;9.926;2023-03-23T00:16:36;99869.44;;;15.28;78.09
43824;BME280;29470;53.550;9.926;2023-03-23T00:21:41;99856.59;;;15.58;76.15
43824;BME280;29470;53.550;9.926;2023-03-23T00:26:46;99856.78;;;15.14;79.34
43824;BME280;29470;53.550;9.926;2023-03-23T00:31:49;99843.88;;;14.93;82.62
43824;BME280;29470;53.550;9.926;2023-03-23T00:36:52;99825.63;;;15.42;79.76
43824;BME280;29470;53.550;9.926;2023-03-23T00:41:58;99820.59;;;15.46;79.62
43824;BME280;29470;53.550;9.926;2023-03-23T00:47:02;99804.97;;;15.46;76.90
43824;BME280;29470;53.550;9.926;2023-03-23T00:52:06;99775.03;;;15.61;77.85
43824;BME280;29470;53.550;9.926;2023-03-23T00:57:09;99776.00;;;15.65;78.50
43824;BME280;29470;53.550;9.926;2023-03-23T01:02:11;99777.66;;;15.87;76.36
43824;BME280;29470;53.550;9.926;2023-03-23T01:07:12;99775.69;;;15.81;77.90
43824;BME280;29470;53.550;9.926;2023-03-23T01:12:15;99759.41;;;15.87;76.28
43824;BME280;29470;53.550;9.926;2023-03-23T01:17:17;99738.31;;;16.08;75.11
43824;BME280;29470;53.550;9.926;2023-03-23T01:22:21;99758.91;;;15.73;76.45
43824;BME280;29470;53.550;9.926;2023-03-23T01:27:24;99760.75;;;15.24;79.85
43824;BME280;29470;53.550;9.926;2023-03-23T01:32:26;99760.78;;;15.51;78.44
43824;BME280;29470;53.550;9.926;2023-03-23T01:37:29;99751.28;;;15.79;76.83
43824;BME280;29470;53.550;9.926;2023-03-23T01:42:34;99736.56;;;15.81;77.02
43824;BME280;29470;53.550;9.926;2023-03-23T01:47:38;99724.34;;;15.79;78.75
43824;BME280;29470;53.550;9.926;2023-03-23T01:52:40;99718.72;;;15.66;77.47
43824;BME280;29470;53.550;9.926;2023-03-23T01:57:44;99716.78;;;16.15;75.95
43824;BME280;29470;53.550;9.926;2023-03-23T02:02:49;99710.91;;;15.66;78.77
43824;BME280;29470;53.550;9.926;2023-03-23T02:07:53;99712.31;;;15.29;79.37
43824;BME280;29470;53.550;9.926;2023-03-23T02:12:57;99719.88;;;15.74;79.19
43824;BME280;29470;53.550;9.926;2023-03-23T02:18:03;99713.66;;;16.27;76.50
43824;BME280;29470;53.550;9.926;2023-03-23T02:23:49;99706.53;;;15.93;79.00
43824;BME280;29470;53.550;9.926;2023-03-23T02:29:11;99706.06;;;15.24;81.65
43824;BME280;29470;53.550;9.926;2023-03-23T02:34:18;99696.25;;;15.16;82.64
43824;BME280;29470;53.550;9.926;2023-03-23T02:39:24;99685.69;;;14.86;84.46
43824;BME280;29470;53.550;9.926;2023-03-23T02:44:29;99688.94;;;15.58;82.47
43824;BME280;29470;53.550;9.926;2023-03-23T02:49:36;99668.72;;;14.97;83.60
43824;BME280;29470;53.550;9.926;2023-03-23T02:54:40;99674.81;;;15.24;83.18
43824;BME280;29470;53.550;9.926;2023-03-23T02:59:43;99678.75;;;15.66;80.40
43824;BME280;29470;53.550;9.926;2023-03-23T03:04:52;99671.16;;;15.73;78.80
43824;BME280;29470;53.550;9.926;2023-03-23T03:09:59;99659.25;;;15.82;81.03
43824;BME280;29470;53.550;9.926;2023-03-23T03:15:10;99656.28;;;15.98;79.54
43824;BME280;29470;53.550;9.926;2023-03-23T03:20:16;99637.09;;;15.40;79.96
43824;BME280;29470;53.550;9.926;2023-03-23T03:25:20;99612.53;;;15.59;79.41
43824;BME280;29470;53.550;9.926;2023-03-23T03:30:26;99604.72;;;15.88;77.85
43824;BME280;29470;53.550;9.926;2023-03-23T03:35:36;99615.22;;;15.62;80.30
43824;BME280;29470;53.550;9.926;2023-03-23T03:40:39;99607.06;;;16.09;76.28
43824;BME280;29470;53.550;9.926;2023-03-23T03:45:41;99610.34;;;15.18;79.89
43824;BME280;29470;53.550;9.926;2023-03-23T03:50:46;99610.84;;;15.61;79.42
43824;BME280;29470;53.550;9.926;2023-03-23T03:55:48;99616.22;;;15.95;79.16
43824;BME280;29470;53.550;9.926;2023-03-23T04:00:52;99618.09;;;15.42;80.80
43824;BME280;29470;53.550;9.926;2023-03-23T04:06:00;99611.44;;;16.10;78.06
43824;BME280;29470;53.550;9.926;2023-03-23T04:11:03;99604.91;;;16.58;73.57
43824;BME280;29470;53.550;9.926;2023-03-23T04:16:07;99601.63;;;16.32;75.25
43824;BME280;29470;53.550;9.926;2023-03-23T04:21:10;99628.34;;;15.94;75.88
43824;BME280;29470;53.550;9.926;2023-03-23T04:26:12;99619.41;;;15.86;78.10
43824;BME280;29470;53.550;9.926;2023-03-23T04:31:21;99624.28;;;15.75;77.26
43824;BME280;29470;53.550;9.926;2023-03-23T04:36:29;99614.78;;;15.48;78.84
43824;BME280;29470;53.550;9.926;2023-03-23T04:41:41;99623.53;;;15.50;78.56
43824;BME280;29470;53.550;9.926;2023-03-23T04:47:13;99621.31;;;15.90;76.91
43824;BME280;29470;53.550;9.926;2023-03-23T04:52:27;99604.25;;;15.45;78.50
43824;BME280;29470;53.550;9.926;2023-03-23T04:57:31;99598.09;;;15.70;76.87
43824;BME280;29470;53.550;9.926;2023-03-23T05:02:53;99599.75;;;15.97;73.93
43824;BME280;29470;53.550;9.926;2023-03-23T05:07:59;99600.88;;;15.76;76.28
43824;BME280;29470;53.550;9.926;2023-03-23T05:13:04;99599.28;;;15.53;77.97
43824;BME280;29470;53.550;9.926;2023-03-23T05:18:06;99608.16;;;15.59;76.99
43824;BME280;29470;53.550;9.926;2023-03-23T05:23:12;99600.19;;;16.13;73.46
43824;BME280;29470;53.550;9.926;2023-03-23T05:28:15;99612.25;;;15.79;74.88
43824;BME280;29470;53.550;9.926;2023-03-23T05:33:16;99600.16;;;16.11;74.98
43824;BME280;29470;53.550;9.926;2023-03-23T05:38:40;99613.25;;;15.84;74.42
43824;BME280;29470;53.550;9.926;2023-03-23T05:43:45;99608.53;;;15.70;76.58
43824;BME280;29470;53.550;9.926;2023-03-23T05:48:58;99594.53;;;15.97;75.46
43824;BME280;29470;53.550;9.926;2023-03-23T05:54:08;99586.88;;;16.02;74.25
43824;BME280;29470;53.550;9.926;2023-03-23T05:59:11;99586.81;;;16.00;73.89
43824;BME280;29470;53.550;9.926;2023-03-23T06:04:16;99592.06;;;16.02;73.78
43824;BME280;29470;53.550;9.926;2023-03-23T06:09:34;99587.03;;;16.08;73.19
43824;BME280;29470;53.550;9.926;2023-03-23T06:14:40;99580.31;;;16.16;72.12
43824;BME280;29470;53.550;9.926;2023-03-23T06:19:44;99582.75;;;16.10;73.07
43824;BME280;29470;53.550;9.926;2023-03-23T06:24:51;99581.16;;;15.86;74.21
43824;BME280;29470;53.550;9.926;2023-03-23T06:30:00;99593.97;;;16.08;72.47
43824;BME280;29470;53.550;9.926;2023-03-23T06:35:04;99587.69;;;16.99;68.53
43824;BME280;29470;53.550;9.926;2023-03-23T06:40:11;99594.88;;;16.40;70.70
43824;BME280;29470;53.550;9.926;2023-03-23T06:45:15;99596.38;;;16.01;72.09
43824;BME280;29470;53.550;9.926;2023-03-23T06:50:18;99600.22;;;16.45;69.00
43824;BME280;29470;53.550;9.926;2023-03-23T06:55:22;99590.63;;;16.77;68.49
43824;BME280;29470;53.550;9.926;2023-03-23T07:00:24;99589.47;;;17.01;67.04
43824;BME280;29470;53.550;9.926;2023-03-23T07:05:27;99575.53;;;16.66;68.31
43824;BME280;29470;53.550;9.926;2023-03-23T07:10:31;99587.56;;;18.55;60.66
43824;BME280;29470;53.550;9.926;2023-03-23T07:15:34;99579.38;;;18.89;58.14
43824;BME280;29470;53.550;9.926;2023-03-23T07:20:36;99590.41;;;18.67;56.88
43824;BME280;29470;53.550;9.926;2023-03-23T07:25:39;99598.50;;;17.51;61.58
43824;BME280;29470;53.550;9.926;2023-03-23T07:30:44;99596.50;;;17.39;61.50
43824;BME280;29470;53.550;9.926;2023-03-23T07:35:46;99586.88;;;18.65;57.62
43824;BME280;29470;53.550;9.926;2023-03-23T07:40:53;99604.50;;;18.77;56.40
43824;BME280;29470;53.550;9.926;2023-03-23T07:45:55;99611.97;;;18.52;57.65
43824;BME280;29470;53.550;9.926;2023-03-23T07:51:02;99610.00;;;18.42;58.87
43824;BME280;29470;53.550;9.926;2023-03-23T07:56:07;99612.91;;;17.72;62.97
43824;BME280;29470;53.550;9.926;2023-03-23T08:01:48;99614.63;;;18.11;62.33
43824;BME280;29470;53.550;9.926;2023-03-23T08:07:08;99619.19;;;17.05;65.20
43824;BME280;29470;53.550;9.926;2023-03-23T08:12:32;99634.31;;;17.95;64.42
43824;BME280;29470;53.550;9.926;2023-03-23T08:17:37;99628.81;;;17.06;67.46
43824;BME280;29470;53.550;9.926;2023-03-23T08:23:06;99658.03;;;16.92;69.19
43824;BME280;29470;53.550;9.926;2023-03-23T08:28:39;99676.81;;;17.11;69.66
43824;BME280;29470;53.550;9.926;2023-03-23T08:34:03;99666.00;;;17.31;67.71
43824;BME280;29470;53.550;9.926;2023-03-23T08:39:37;99661.91;;;16.73;65.42
43824;BME280;29470;53.550;9.926;2023-03-23T08:44:58;99673.44;;;17.50;64.47
43824;BME280;29470;53.550;9.926;2023-03-23T08:50:25;99689.00;;;18.67;59.88
43824;BME280;29470;53.550;9.926;2023-03-23T08:55:40;99685.53;;;18.66;59.08
43824;BME280;29470;53.550;9.926;2023-03-23T09:00:47;99681.97;;;19.09;59.18
43824;BME280;29470;53.550;9.926;2023-03-23T09:06:13;99678.31;;;19.01;58.50
43824;BME280;29470;53.550;9.926;2023-03-23T09:11:19;99688.59;;;19.39;54.31
43824;BME280;29470;53.550;9.926;2023-03-23T09:16:22;99692.13;;;19.42;55.58
43824;BME280;29470;53.550;9.926;2023-03-23T09:21:24;99697.16;;;18.81;56.81
43824;BME280;29470;53.550;9.926;2023-03-23T09:26:26;99706.16;;;18.51;54.94
43824;BME280;29470;53.550;9.926;2023-03-23T09:31:29;99719.78;;;18.34;57.48
43824;BME280;29470;53.550;9.926;2023-03-23T09:36:31;99706.47;;;18.23;56.84
43824;BME280;29470;53.550;9.926;2023-03-23T09:41:48;99722.25;;;17.51;57.96
43824;BME280;29470;53.550;9.926;2023-03-23T09:46:59;99727.06;;;19.41;53.47
43824;BME280;29470;53.550;9.926;2023-03-23T09:52:10;99735.00;;;18.13;55.57
43824;BME280;29470;53.550;9.926;2023-03-23T09:57:15;99740.31;;;18.16;56.23
43824;BME280;29470;53.550;9.926;2023-03-23T10:02:34;99743.78;;;18.97;54.20
43824;BME280;29470;53.550;9.926;2023-03-23T10:07:38;99738.56;;;18.99;52.99
43824;BME280;29470;53.550;9.926;2023-03-23T10:12:43;99732.16;;;19.31;52.18
43824;BME280;29470;53.550;9.926;2023-03-23T10:17:52;99736.94;;;18.63;52.58
43824;BME280;29470;53.550;9.926;2023-03-23T10:22:59;99742.78;;;19.94;49.73
43824;BME280;29470;53.550;9.926;2023-03-23T10:28:08;99746.75;;;19.70;51.05
43824;BME280;29470;53.550;9.926;2023-03-23T10:33:19;99738.13;;;19.77;49.82
43824;BME280;29470;53.550;9.926;2023-03-23T10:38:24;99746.19;;;20.51;47.98
43824;BME280;29470;53.550;9.926;2023-03-23T10:43:27;99762.91;;;19.93;49.57
43824;BME280;29470;53.550;9.926;2023-03-23T10:48:31;99765.63;;;20.01;49.75
43824;BME280;29470;53.550;9.926;2023-03-23T10:53:37;99766.47;;;19.46;49.48
43824;BME280;29470;53.550;9.926;2023-03-23T10:58:40;99767.59;;;19.10;48.89
43824;BME280;29470;53.550;9.926;2023-03-23T11:03:44;99776.22;;;20.07;47.69
43824;BME280;29470;53.550;9.926;2023-03-23T11:08:52;99782.66;;;20.96;45.98
43824;BME280;29470;53.550;9.926;2023-03-23T11:13:59;99778.19;;;19.65;48.76
43824;BME280;29470;53.550;9.926;2023-03-23T11:19:14;99787.09;;;19.26;51.30
43824;BME280;29470;53.550;9.926;2023-03-23T11:24:21;99787.53;;;18.60;52.89
43824;BME280;29470;53.550;9.926;2023-03-23T11:29:24;99783.06;;;18.54;53.39
43824;BME280;29470;53.550;9.926;2023-03-23T11:34:31;99781.97;;;19.32;51.77
43824;BME280;29470;53.550;9.926;2023-03-23T11:39:46;99806.72;;;20.59;49.33
43824;BME280;29470;53.550;9.926;2023-03-23T11:44:48;99792.78;;;19.02;52.85
43824;BME280;29470;53.550;9.926;2023-03-23T11:49:57;99781.56;;;19.60;51.11
43824;BME280;29470;53.550;9.926;2023-03-23T11:55:08;99804.03;;;19.45;51.89
43824;BME280;29470;53.550;9.926;2023-03-23T12:00:14;99828.88;;;19.66;51.29
43824;BME280;29470;53.550;9.926;2023-03-23T12:05:43;99828.63;;;18.64;52.41
43824;BME280;29470;53.550;9.926;2023-03-23T12:10:51;99811.31;;;19.60;51.94
43824;BME280;29470;53.550;9.926;2023-03-23T12:21:24;99817.06;;;18.96;54.32
43824;BME280;29470;53.550;9.926;2023-03-23T12:26:30;99812.34;;;18.78;54.80
43824;BME280;29470;53.550;9.926;2023-03-23T12:31:38;99813.91;;;19.11;54.76
43824;BME280;29470;53.550;9.926;2023-03-23T12:36:53;99809.75;;;18.38;57.65
43824;BME280;29470;53.550;9.926;2023-03-23T12:42:05;99811.13;;;17.87;60.15
43824;BME280;29470;53.550;9.926;2023-03-23T12:47:21;99812.09;;;19.07;57.08
43824;BME280;29470;53.550;9.926;2023-03-23T12:52:30;99806.47;;;18.90;56.69
43824;BME280;29470;53.550;9.926;2023-03-23T12:57:36;99796.38;;;19.07;55.78
43824;BME280;29470;53.550;9.926;2023-03-23T13:02:44;99793.13;;;20.25;53.40
43824;BME280;29470;53.550;9.926;2023-03-23T13:07:56;99792.78;;;19.02;54.38
43824;BME280;29470;53.550;9.926;2023-03-23T13:13:00;99787.63;;;20.08;53.31
43824;BME280;29470;53.550;9.926;2023-03-23T13:18:10;99787.22;;;20.41;51.30
43824;BME280;29470;53.550;9.926;2023-03-23T13:23:17;99779.34;;;19.84;50.24
43824;BME280;29470;53.550;9.926;2023-03-23T13:28:22;99768.34;;;19.52;51.58
43824;BME280;29470;53.550;9.926;2023-03-23T13:33:30;99766.66;;;19.57;50.99
43824;BME280;29470;53.550;9.926;2023-03-23T13:38:34;99777.84;;;19.97;50.68
43824;BME280;29470;53.550;9.926;2023-03-23T13:43:38;99766.69;;;20.11;49.58
43824;BME280;29470;53.550;9.926;2023-03-23T13:48:44;99778.09;;;18.68;52.42
43824;BME280;29470;53.550;9.926;2023-03-23T13:53:48;99782.03;;;18.48;52.56
43824;BME280;29470;53.550;9.926;2023-03-23T13:59:04;99791.28;;;18.32;54.11
43824;BME280;29470;53.550;9.926;2023-03-23T14:04:10;99818.63;;;18.45;55.15
43824;BME280;29470;53.550;9.926;2023-03-23T14:09:16;99887.44;;;15.70;62.58
43824;BME280;29470;53.550;9.926;2023-03-23T14:14:23;99856.13;;;15.95;65.54
43824;BME280;29470;53.550;9.926;2023-03-23T14:19:28;99832.72;;;16.53;65.20
43824;BME280;29470;53.550;9.926;2023-03-23T14:24:38;99806.28;;;16.71;63.40
43824;BME280;29470;53.550;9.926;2023-03-23T14:29:40;99807.06;;;17.63;61.10
43824;BME280;29470;53.550;9.926;2023-03-23T14:34:43;99804.25;;;17.90;59.03
43824;BME280;29470;53.550;9.926;2023-03-23T14:39:51;99813.34;;;17.04;61.85
43824;BME280;29470;53.550;9.926;2023-03-23T14:44:53;99810.56;;;17.99;59.04
43824;BME280;29470;53.550;9.926;2023-03-23T14:49:56;99818.47;;;17.01;58.42
43824;BME280;29470;53.550;9.926;2023-03-23T14:55:12;99820.63;;;17.48;57.46
43824;BME280;29470;53.550;9.926;2023-03-23T15:00:16;99830.38;;;17.55;57.49
43824;BME280;29470;53.550;9.926;2023-03-23T15:05:21;99833.19;;;17.29;57.56
43824;BME280;29470;53.550;9.926;2023-03-23T15:10:25;99845.06;;;16.89;58.68
43824;BME280;29470;53.550;9.926;2023-03-23T15:15:30;99840.63;;;17.81;57.09
43824;BME280;29470;53.550;9.926;2023-03-23T15:20:48;99848.34;;;18.10;56.92
43824;BME280;29470;53.550;9.926;2023-03-23T15:25:52;99865.97;;;16.89;59.64
43824;BME280;29470;53.550;9.926;2023-03-23T15:30:56;99856.00;;;17.35;59.45
43824;BME280;29470;53.550;9.926;2023-03-23T15:35:58;99850.44;;;18.25;55.89
43824;BME280;29470;53.550;9.926;2023-03-23T15:41:04;99845.41;;;18.73;54.31
43824;BME280;29470;53.550;9.926;2023-03-23T15:46:20;99848.03;;;17.98;54.55
43824;BME280;29470;53.550;9.926;2023-03-23T15:51:26;99853.34;;;17.67;55.56
43824;BME280;29470;53.550;9.926;2023-03-23T15:56:30;99875.56;;;17.49;56.98
43824;BME280;29470;53.550;9.926;2023-03-23T16:01:32;99868.94;;;17.98;54.84
43824;BME280;29470;53.550;9.926;2023-03-23T16:06:36;99872.00;;;18.15;54.05
43824;BME280;29470;53.550;9.926;2023-03-23T16:11:40;99886.47;;;17.34;55.16
43824;BME280;29470;53.550;9.926;2023-03-23T16:16:47;99893.81;;;17.48;55.49
43824;BME280;29470;53.550;9.926;2023-03-23T16:21:51;99891.19;;;17.81;56.36
43824;BME280;29470;53.550;9.926;2023-03-23T16:26:56;99898.19;;;18.51;54.60
43824;BME280;29470;53.550;9.926;2023-03-23T16:31:58;99888.91;;;18.66;53.56
43824;BME280;29470;53.550;9.926;2023-03-23T16:37:01;99887.84;;;18.19;53.16
43824;BME280;29470;53.550;9.926;2023-03-23T16:42:05;99901.13;;;17.93;53.40
43824;BME280;29470;53.550;9.926;2023-03-23T16:47:08;99884.16;;;18.11;53.13
43824;BME280;29470;53.550;9.926;2023-03-23T16:52:11;99861.66;;;18.58;51.75
43824;BME280;29470;53.550;9.926;2023-03-23T16:57:15;99854.31;;;17.71;54.50
43824;BME280;29470;53.550;9.926;2023-03-23T17:02:18;99859.88;;;17.83;54.14
43824;BME280;29470;53.550;9.926;2023-03-23T17:07:21;99866.31;;;17.62;54.41
43824;BME280;29470;53.550;9.926;2023-03-23T17:12:25;99878.78;;;17.73;54.32
43824;BME280;29470;53.550;9.926;2023-03-23T17:17:28;99894.13;;;17.59;55.58
43824;BME280;29470;53.550;9.926;2023-03-23T17:22:31;99889.03;;;16.73;56.32
43824;BME280;29470;53.550;9.926;2023-03-23T17:27:35;99881.25;;;17.04;56.32
43824;BME280;29470;53.550;9.926;2023-03-23T17:32:38;99890.34;;;17.49;54.90
43824;BME280;29470;53.550;9.926;2023-03-23T17:37:41;99895.16;;;17.33;55.66
43824;BME280;29470;53.550;9.926;2023-03-23T17:42:46;99889.84;;;17.00;56.97
43824;BME280;29470;53.550;9.926;2023-03-23T17:47:48;99904.72;;;16.73;56.74
43824;BME280;29470;53.550;9.926;2023-03-23T17:52:51;99907.13;;;16.40;58.71
43824;BME280;29470;53.550;9.926;2023-03-23T17:57:56;99910.28;;;16.03;61.25
43824;BME280;29470;53.550;9.926;2023-03-23T18:02:59;99900.75;;;16.04;61.21
43824;BME280;29470;53.550;9.926;2023-03-23T18:08:02;99902.84;;;16.42;60.44
43824;BME280;29470;53.550;9.926;2023-03-23T18:13:07;99915.03;;;16.41;60.34
43824;BME280;29470;53.550;9.926;2023-03-23T18:18:10;99929.06;;;15.93;62.29
43824;BME280;29470;53.550;9.926;2023-03-23T18:23:13;99935.84;;;15.64;64.30
43824;BME280;29470;53.550;9.926;2023-03-23T18:28:18;99935.56;;;15.56;64.54
43824;BME280;29470;53.550;9.926;2023-03-23T18:33:21;99928.81;;;15.61;64.10
43824;BME280;29470;53.550;9.926;2023-03-23T18:38:26;99933.09;;;15.12;65.03
43824;BME280;29470;53.550;9.926;2023-03-23T18:43:30;99942.16;;;15.22;64.49
43824;BME280;29470;53.550;9.926;2023-03-23T18:48:34;99941.44;;;15.74;62.05
43824;BME280;29470;53.550;9.926;2023-03-23T18:53:38;99931.34;;;15.84;61.99
43824;BME280;29470;53.550;9.926;2023-03-23T18:58:43;99932.50;;;15.68;62.64
43824;BME280;29470;53.550;9.926;2023-03-23T19:03:46;99935.88;;;15.88;61.01
43824;BME280;29470;53.550;9.926;2023-03-23T19:08:50;99935.03;;;15.40;62.34
43824;BME280;29470;53.550;9.926;2023-03-23T19:13:55;99935.06;;;15.42;63.06
43824;BME280;29470;53.550;9.926;2023-03-23T19:19:04;99938.84;;;15.50;63.40
43824;BME280;29470;53.550;9.926;2023-03-23T19:24:09;99923.91;;;15.95;61.86
43824;BME280;29470;53.550;9.926;2023-03-23T19:29:14;99934.56;;;15.28;64.22
43824;BME280;29470;53.550;9.926;2023-03-23T19:34:21;99934.84;;;15.60;64.13
43824;BME280;29470;53.550;9.926;2023-03-23T19:39:24;99937.09;;;15.75;64.01
43824;BME280;29470;53.550;9.926;2023-03-23T19:44:31;99935.69;;;15.59;64.89
43824;BME280;29470;53.550;9.926;2023-03-23T19:49:39;99932.38;;;15.87;63.32
43824;BME280;29470;53.550;9.926;2023-03-23T19:54:42;99934.72;;;15.81;64.68
43824;BME280;29470;53.550;9.926;2023-03-23T19:59:49;99933.34;;;15.91;64.33
43824;BME280;29470;53.550;9.926;2023-03-23T20:05:13;99913.59;;;15.98;63.93
43824;BME280;29470;53.550;9.926;2023-03-23T20:10:17;99906.41;;;15.42;64.87
43824;BME280;29470;53.550;9.926;2023-03-23T20:15:30;99904.44;;;15.85;63.58
43824;BME280;29470;53.550;9.926;2023-03-23T20:20:34;99904.81;;;15.96;62.91
43824;BME280;29470;53.550;9.926;2023-03-23T20:25:37;99912.16;;;15.82;63.02
43824;BME280;29470;53.550;9.926;2023-03-23T20:30:41;99904.66;;;15.67;64.15
43824;BME280;29470;53.550;9.926;2023-03-23T20:35:47;99905.13;;;15.55;63.83
43824;BME280;29470;53.550;9.926;2023-03-23T20:40:53;99902.41;;;15.52;65.33
43824;BME280;29470;53.550;9.926;2023-03-23T20:46:03;99890.88;;;15.69;64.71
43824;BME280;29470;53.550;9.926;2023-03-23T20:51:08;99889.88;;;15.90;64.34
43824;BME280;29470;53.550;9.926;2023-03-23T20:56:19;99885.22;;;16.34;62.24
43824;BME280;29470;53.550;9.926;2023-03-23T21:01:24;99882.59;;;16.34;62.61
43824;BME280;29470;53.550;9.926;2023-03-23T21:06:28;99880.13;;;16.12;63.78
43824;BME280;29470;53.550;9.926;2023-03-23T21:11:32;99874.78;;;16.07;64.18
43824;BME280;29470;53.550;9.926;2023-03-23T21:16:37;99866.66;;;15.98;65.42
43824;BME280;29470;53.550;9.926;2023-03-23T21:21:41;99880.13;;;15.86;66.23
43824;BME280;29470;53.550;9.926;2023-03-23T21:26:59;99872.41;;;16.15;65.59
43824;BME280;29470;53.550;9.926;2023-03-23T21:32:05;99870.78;;;16.46;65.03
43824;BME280;29470;53.550;9.926;2023-03-23T21:37:09;99864.13;;;16.28;64.99
43824;BME280;29470;53.550;9.926;2023-03-23T21:42:12;99853.91;;;16.07;66.23
43824;BME280;29470;53.550;9.926;2023-03-23T21:47:16;99842.81;;;16.42;65.22
43824;BME280;29470;53.550;9.926;2023-03-23T21:52:20;99842.25;;;16.81;64.50
43824;BME280;29470;53.550;9.926;2023-03-23T21:57:22;99835.47;;;16.57;65.17
43824;BME280;29470;53.550;9.926;2023-03-23T22:02:27;99831.16;;;16.88;65.94
43824;BME280;29470;53.550;9.926;2023-03-23T22:07:30;99818.00;;;17.16;64.55
43824;BME280;29470;53.550;9.926;2023-03-23T22:12:34;99821.97;;;17.01;64.49
43824;BME280;29470;53.550;9.926;2023-03-23T22:17:39;99808.25;;;16.79;65.78
43824;BME280;29470;53.550;9.926;2023-03-23T22:22:42;99801.06;;;16.42;66.82
43824;BME280;29470;53.550;9.926;2023-03-23T22:27:45;99793.78;;;16.60;65.51
43824;BME280;29470;53.550;9.926;2023-03-23T22:32:50;99785.66;;;16.80;64.40
43824;BME280;29470;53.550;9.926;2023-03-23T22:37:52;99773.16;;;16.68;65.82
43824;BME280;29470;53.550;9.926;2023-03-23T22:42:56;99763.28;;;16.29;66.46
43824;BME280;29470;53.550;9.926;2023-03-23T22:48:00;99758.47;;;16.43;66.49
43824;BME280;29470;53.550;9.926;2023-03-23T22:53:06;99750.09;;;16.24;67.85
43824;BME280;29470;53.550;9.926;2023-03-23T22:58:09;99748.03;;;15.86;69.11
43824;BME280;29470;53.550;9.926;2023-03-23T23:03:14;99737.66;;;16.15;68.59
43824;BME280;29470;53.550;9.926;2023-03-23T23:08:17;99722.41;;;16.00;68.81
43824;BME280;29470;53.550;9.926;2023-03-23T23:13:21;99716.34;;;16.30;67.63
43824;BME280;29470;53.550;9.926;2023-03-23T23:18:26;99711.22;;;16.33;67.23
43824;BME280;29470;53.550;9.926;2023-03-23T23:23:29;99690.22;;;16.29;67.46
43824;BME280;29470;53.550;9.926;2023-03-23T23:28:32;99686.34;;;16.14;67.52
43824;BME280;29470;53.550;9.926;2023-03-23T23:33:37;99683.34;;;16.31;67.31
43824;BME280;29470;53.550;9.926;2023-03-23T23:38:40;99670.22;;;16.60;65.51
43824;BME280;29470;53.550;9.926;2023-03-23T23:43:43;99666.66;;;16.26;66.93
43824;BME280;29470;53.550;9.926;2023-03-23T23:48:47;99663.75;;;16.47;65.42
43824;BME280;29470;53.550;9.926;2023-03-23T23:53:50;99670.13;;;16.25;66.44
43824;BME280;29470;53.550;9.926;2023-03-23T23:58:54;99666.94;;;16.67;64.93
